Time;durP1;ratioP1;P1;durP2;ratioP2;P2;SDS_P1;SDS_P2;PMS_P1;PMS_P2;Temp;Humidity;BMP_temperature;BMP_pressure;BME280_temperature;BME280_humidity;BME280_pressure;Samples;Min_cycle;Max_cycle;Signal;HPM_P1;HPM_P2
2022/09/07 00:01:24;;;;;;;4.67;2.47;;;20.30;99.90;;;;;;4952191;28;20415;-85
2022/09/07 00:03:52;;;;;;;5.20;2.50;;;20.30;99.90;;;;;;4966444;28;20225;-84
2022/09/07 00:06:18;;;;;;;5.90;2.70;;;20.20;99.90;;;;;;4959382;28;20346;-86
2022/09/07 00:08:44;;;;;;;5.20;2.73;;;20.20;99.90;;;;;;4962715;28;21349;-85
2022/09/07 00:11:14;;;;;;;3.63;2.40;;;20.20;99.90;;;;;;4964975;28;20192;-84
2022/09/07 00:13:41;;;;;;;5.63;2.20;;;20.10;99.90;;;;;;4959703;28;20667;-84
2022/09/07 00:16:11;;;;;;;2.63;2.10;;;20.30;99.90;;;;;;4966774;28;20453;-85
2022/09/07 00:18:36;;;;;;;5.50;2.20;;;20.10;99.90;;;;;;4965692;28;21693;-83
2022/09/07 00:21:06;;;;;;;5.00;2.00;;;20.10;99.90;;;;;;4949542;28;20538;-84
2022/09/07 00:23:33;;;;;;;3.37;1.90;;;20.10;99.90;;;;;;4960787;28;20980;-85
2022/09/07 00:26:08;;;;;;;3.73;2.40;;;20.10;99.90;;;;;;4962328;28;20459;-85
2022/09/07 00:28:34;;;;;;;6.53;2.67;;;20.10;99.90;;;;;;4958793;28;20473;-85
2022/09/07 00:31:00;;;;;;;9.10;2.43;;;20.10;99.90;;;;;;4948028;28;20454;-86
2022/09/07 00:33:26;;;;;;;3.10;2.80;;;20.10;99.90;;;;;;4966907;28;20557;-85
2022/09/07 00:35:51;;;;;;;2.80;2.23;;;22.40;99.90;;;;;;4968042;28;20184;-85
2022/09/07 00:38:17;;;;;;;5.03;2.57;;;19.90;99.90;;;;;;4968183;28;20312;-85
2022/09/07 00:40:43;;;;;;;3.17;2.30;;;19.90;99.90;;;;;;4969191;28;20321;-86
2022/09/07 00:43:32;;;;;;;8.63;2.63;;;19.90;99.90;;;;;;4965495;28;20227;-85
2022/09/07 00:45:58;;;;;;;8.20;2.20;;;19.90;99.90;;;;;;4965082;28;20203;-84
2022/09/07 00:48:34;;;;;;;5.23;3.13;;;19.70;99.90;;;;;;4941312;28;20503;-85
2022/09/07 00:51:04;;;;;;;5.43;2.47;;;19.70;99.90;;;;;;4969350;28;20442;-85
2022/09/07 00:53:34;;;;;;;5.03;3.20;;;19.60;99.90;;;;;;4972522;28;20550;-85
2022/09/07 00:56:01;;;;;;;7.07;2.40;;;19.50;99.90;;;;;;4942755;28;20469;-85
2022/09/07 00:58:29;;;;;;;5.73;2.80;;;19.50;99.90;;;;;;4968932;28;20454;-85
2022/09/07 01:00:55;;;;;;;9.43;3.20;;;19.50;99.90;;;;;;4949320;28;20446;-84
2022/09/07 01:03:27;;;;;;;3.80;2.70;;;19.40;99.90;;;;;;4947717;28;20458;-84
2022/09/07 01:05:59;;;;;;;5.50;2.50;;;19.20;99.90;;;;;;4965964;28;20370;-84
2022/09/07 01:08:25;;;;;;;5.50;3.03;;;19.10;99.90;;;;;;4949790;28;20565;-84
2022/09/07 01:10:51;;;;;;;6.40;2.50;;;18.80;99.90;;;;;;4971299;28;20467;-86
2022/09/07 01:13:16;;;;;;;8.00;2.77;;;18.60;99.90;;;;;;4948989;28;20514;-85
2022/09/07 01:15:44;;;;;;;3.77;3.13;;;18.50;99.90;;;;;;4962708;28;20180;-85
2022/09/07 01:18:20;;;;;;;4.83;2.60;;;18.50;99.90;;;;;;4967758;28;20203;-85
2022/09/07 01:21:09;;;;;;;8.70;2.77;;;18.50;99.90;;;;;;4961367;28;20442;-85
2022/09/07 01:23:54;;;;;;;6.43;3.00;;;18.40;99.90;;;;;;4934868;28;20577;-86
2022/09/07 01:26:32;;;;;;;6.23;2.83;;;18.30;99.90;;;;;;4973141;28;20452;-85
2022/09/07 01:29:09;;;;;;;4.20;2.93;;;18.20;99.90;;;;;;4967568;28;20459;-86
2022/09/07 01:31:45;;;;;;;5.80;3.43;;;18.20;99.90;;;;;;4966235;28;20462;-86
2022/09/07 01:34:29;;;;;;;6.20;4.37;;;18.20;99.90;;;;;;4962199;28;20459;-85
2022/09/07 01:37:00;;;;;;;4.50;3.00;;;18.30;99.90;;;;;;4960190;28;20745;-84
2022/09/07 01:39:45;;;;;;;4.43;2.67;;;18.30;99.90;;;;;;4962425;28;20439;-86
2022/09/07 01:42:13;;;;;;;8.40;2.80;;;18.30;99.90;;;;;;4967755;28;20455;-86
2022/09/07 01:44:45;;;;;;;3.40;2.40;;;18.10;99.90;;;;;;4964263;28;20434;-85
2022/09/07 01:47:23;;;;;;;9.60;2.90;;;18.10;99.90;;;;;;4964081;28;20575;-87
2022/09/07 01:50:06;;;;;;;3.00;2.77;;;18.10;99.90;;;;;;4942637;28;20438;-85
2022/09/07 01:52:41;;;;;;;9.97;2.60;;;18.10;99.90;;;;;;4962836;28;20455;-87
2022/09/07 01:55:36;;;;;;;9.40;2.60;;;18.20;99.90;;;;;;4949342;28;20439;-85
2022/09/07 01:58:16;;;;;;;4.13;2.67;;;18.20;99.90;;;;;;4945947;28;20565;-85
2022/09/07 02:00:52;;;;;;;11.50;4.53;;;18.10;99.90;;;;;;4961892;28;20439;-86
2022/09/07 02:03:40;;;;;;;4.43;2.60;;;18.10;99.90;;;;;;4969191;28;20459;-86
2022/09/07 02:06:35;;;;;;;6.87;3.07;;;18.20;99.90;;;;;;4953080;28;20459;-86
2022/09/07 02:09:38;;;;;;;9.10;3.30;;;18.20;99.90;;;;;;4966952;28;21300;-87
2022/09/07 02:12:13;;;;;;;7.23;2.63;;;18.40;99.90;;;;;;4925563;28;20584;-86
2022/09/07 02:14:43;;;;;;;9.00;2.80;;;18.40;99.90;;;;;;4965335;28;20777;-87
2022/09/07 02:17:17;;;;;;;5.77;2.80;;;18.40;99.90;;;;;;4944883;28;21284;-86
2022/09/07 02:19:54;;;;;;;10.23;3.60;;;18.30;99.90;;;;;;4945993;28;20576;-86
2022/09/07 02:22:26;;;;;;;6.30;3.70;;;18.30;99.90;;;;;;4962725;28;20489;-86
2022/09/07 02:24:55;;;;;;;4.37;2.80;;;18.20;99.90;;;;;;4962932;28;21026;-86
2022/09/07 02:27:28;;;;;;;9.90;3.60;;;18.20;99.90;;;;;;4946195;28;20537;-85
2022/09/07 02:29:53;;;;;;;4.23;2.97;;;18.10;99.90;;;;;;4968918;28;20430;-87
2022/09/07 02:32:19;;;;;;;6.10;4.03;;;18.10;99.90;;;;;;4970341;28;22384;-87
2022/09/07 02:34:45;;;;;;;8.93;3.63;;;18.10;99.90;;;;;;4968204;28;20187;-86
2022/09/07 02:37:13;;;;;;;11.20;4.60;;;18.20;99.90;;;;;;4966513;28;20525;-87
2022/09/07 02:39:38;;;;;;;5.43;3.30;;;18.30;99.90;;;;;;4965596;28;20191;-86
2022/09/07 02:42:04;;;;;;;6.23;2.87;;;18.30;99.90;;;;;;4965238;28;20574;-86
2022/09/07 02:44:33;;;;;;;4.93;4.07;;;18.40;99.90;;;;;;4966892;28;20191;-86
2022/09/07 02:47:19;;;;;;;4.93;3.13;;;18.50;99.90;;;;;;4945606;28;20187;-87
2022/09/07 02:49:52;;;;;;;7.50;3.40;;;18.50;99.90;;;;;;4962888;28;20525;-85
2022/09/07 02:52:41;;;;;;;4.97;3.93;;;18.60;99.90;;;;;;4961635;28;20463;-86
2022/09/07 02:55:34;;;;;;;6.73;3.40;;;18.60;99.90;;;;;;4962553;28;20435;-87
2022/09/07 02:58:05;;;;;;;9.20;4.13;;;18.60;99.90;;;;;;4958956;28;20463;-86
2022/09/07 03:00:38;;;;;;;6.90;3.30;;;18.60;99.90;;;;;;4937268;28;20513;-87
2022/09/07 03:03:46;;;;;;;5.60;4.27;;;18.70;99.90;;;;;;4963671;28;20509;-86
2022/09/07 03:06:24;;;;;;;5.47;3.90;;;18.70;99.90;;;;;;4963240;28;20470;-86
2022/09/07 03:08:54;;;;;;;6.40;3.50;;;18.80;99.90;;;;;;4962274;28;20501;-85
2022/09/07 03:11:20;;;;;;;7.17;4.80;;;19.00;99.90;;;;;;4959190;28;20443;-85
2022/09/07 03:13:46;;;;;;;6.00;4.20;;;18.90;99.90;;;;;;4950898;28;20463;-86
2022/09/07 03:16:13;;;;;;;8.50;4.60;;;19.00;99.90;;;;;;4969291;28;20434;-85
2022/09/07 03:18:39;;;;;;;5.03;3.87;;;19.00;99.90;;;;;;4951019;28;20194;-86
2022/09/07 03:21:04;;;;;;;8.53;3.60;;;19.00;99.90;;;;;;4943422;28;20439;-85
2022/09/07 03:23:30;;;;;;;5.53;3.30;;;19.10;99.90;;;;;;4966773;28;20679;-86
2022/09/07 03:25:55;;;;;;;5.53;3.60;;;19.10;99.90;;;;;;4947030;28;20227;-85
2022/09/07 03:28:21;;;;;;;13.60;5.97;;;;;;;;;;4965272;28;20222;-85
2022/09/07 03:30:47;;;;;;;5.30;3.33;;;19.00;99.90;;;;;;4970400;28;20198;-86
2022/09/07 03:33:14;;;;;;;6.53;2.80;;;19.00;99.90;;;;;;4963837;28;20454;-84
2022/09/07 03:35:44;;;;;;;7.63;3.80;;;19.10;99.90;;;;;;4954058;28;20188;-86
2022/09/07 03:38:10;;;;;;;8.00;3.80;;;19.00;99.90;;;;;;4962065;28;20457;-85
2022/09/07 03:40:35;;;;;;;7.03;3.80;;;19.10;99.90;;;;;;4941312;28;20447;-85
2022/09/07 03:43:01;;;;;;;5.80;3.50;;;;;;;;;;4962926;28;20472;-85
2022/09/07 03:45:27;;;;;;;4.80;3.20;;;18.80;99.90;;;;;;4957807;28;20187;-86
2022/09/07 03:47:53;;;;;;;3.80;3.27;;;18.60;99.90;;;;;;4942214;28;21592;-85
2022/09/07 03:50:18;;;;;;;5.30;3.57;;;18.50;99.90;;;;;;4945193;28;20180;-85
2022/09/07 03:52:44;;;;;;;7.07;3.50;;;18.50;99.90;;;;;;4944857;28;20735;-87
2022/09/07 03:55:10;;;;;;;6.33;3.17;;;18.50;99.90;;;;;;4959358;28;20299;-86
2022/09/07 03:57:35;;;;;;;8.77;3.60;;;18.50;99.90;;;;;;4957311;28;20322;-86
2022/09/07 04:00:03;;;;;;;5.23;2.97;;;18.40;99.90;;;;;;4938388;28;20465;-85
2022/09/07 04:02:28;;;;;;;8.73;3.17;;;18.40;99.90;;;;;;4949149;28;22143;-86
2022/09/07 04:04:54;;;;;;;6.67;2.83;;;;;;;;;;4984540;23;20453;-84
2022/09/07 04:07:20;;;;;;;8.80;3.00;;;18.00;99.90;;;;;;4925842;28;20222;-85
2022/09/07 04:09:45;;;;;;;5.37;3.13;;;17.90;99.90;;;;;;4948120;28;20465;-82
2022/09/07 04:12:11;;;;;;;9.00;3.40;;;17.80;99.90;;;;;;4937225;28;20194;-84
2022/09/07 04:14:36;;;;;;;4.80;3.10;;;17.70;99.90;;;;;;4955068;28;20216;-85
2022/09/07 04:17:02;;;;;;;4.93;3.17;;;17.60;99.90;;;;;;4946915;28;20211;-84
2022/09/07 04:19:28;;;;;;;7.97;3.07;;;17.60;99.90;;;;;;4935212;28;20355;-81
2022/09/07 04:21:54;;;;;;;6.60;3.50;;;17.50;99.90;;;;;;4942535;28;20190;-83
2022/09/07 04:24:20;;;;;;;5.30;3.10;;;;;;;;;;4954354;28;20437;-83
2022/09/07 04:26:45;;;;;;;5.13;2.80;;;17.40;99.90;;;;;;4933939;28;20911;-85
2022/09/07 04:29:11;;;;;;;10.93;3.60;;;17.40;99.90;;;;;;4961026;28;20856;-84
2022/09/07 04:31:37;;;;;;;6.20;3.30;;;17.40;99.90;;;;;;4950085;28;20195;-82
2022/09/07 04:34:05;;;;;;;5.93;4.00;;;17.50;99.90;;;;;;4950490;28;20438;-81
2022/09/07 04:36:30;;;;;;;4.20;2.70;;;17.50;99.90;;;;;;4956944;28;20520;-85
2022/09/07 04:38:58;;;;;;;6.60;3.40;;;17.50;99.90;;;;;;4955110;28;20446;-84
2022/09/07 04:41:25;;;;;;;8.13;3.40;;;17.40;99.90;;;;;;4960064;28;20195;-82
2022/09/07 04:43:53;;;;;;;6.80;3.63;;;17.40;99.90;;;;;;4964287;28;20451;-84
2022/09/07 04:46:28;;;;;;;6.23;2.73;;;17.40;99.90;;;;;;4963792;28;21065;-82
2022/09/07 04:48:56;;;;;;;4.70;3.10;;;17.50;99.90;;;;;;4949550;28;20553;-83
2022/09/07 04:51:24;;;;;;;6.00;3.33;;;17.50;99.90;;;;;;4954715;28;20553;-82
2022/09/07 04:53:52;;;;;;;7.20;3.50;;;17.50;99.90;;;;;;4952343;28;20451;-82
2022/09/07 04:56:18;;;;;;;7.03;3.30;;;17.50;99.90;;;;;;4965470;28;20522;-81
2022/09/07 04:58:45;;;;;;;9.10;3.77;;;17.50;99.90;;;;;;4966367;28;21331;-84
2022/09/07 05:01:13;;;;;;;4.13;2.70;;;17.50;99.90;;;;;;4958635;28;20431;-83
2022/09/07 05:03:38;;;;;;;8.00;2.90;;;17.60;99.90;;;;;;4947591;28;20431;-82
2022/09/07 05:06:06;;;;;;;7.63;3.20;;;17.70;99.90;;;;;;4987979;28;20496;-81
2022/09/07 05:08:40;;;;;;;4.90;2.80;;;17.70;99.90;;;;;;4962314;28;20310;-86
2022/09/07 05:11:06;;;;;;;5.53;3.10;;;17.70;99.90;;;;;;4966753;28;20444;-81
2022/09/07 05:13:32;;;;;;;9.03;2.70;;;17.80;99.90;;;;;;4959518;28;20526;-86
2022/09/07 05:15:58;;;;;;;10.80;3.13;;;17.80;99.90;;;;;;4935807;28;20455;-84
2022/09/07 05:18:24;;;;;;;8.10;2.90;;;;;;;;;;4954148;28;20754;-83
2022/09/07 05:20:50;;;;;;;5.83;3.27;;;18.00;99.90;;;;;;4950022;28;20446;-86
2022/09/07 05:23:15;;;;;;;2.60;2.30;;;18.30;99.90;;;;;;4950080;28;20458;-83
2022/09/07 05:25:43;;;;;;;5.33;3.23;;;20.20;99.90;;;;;;4924245;28;20211;-86
2022/09/07 05:28:10;;;;;;;7.07;3.13;;;;;;;;;;4954358;28;20216;-87
2022/09/07 05:30:35;;;;;;;6.30;2.50;;;21.50;99.90;;;;;;4960613;28;20427;-85
2022/09/07 05:33:01;;;;;;;5.53;3.10;;;22.80;99.90;;;;;;4960237;28;21104;-85
2022/09/07 05:35:27;;;;;;;8.73;2.70;;;23.80;99.90;;;;;;4955901;28;20309;-84
2022/09/07 05:37:52;;;;;;;8.03;2.97;;;24.90;99.90;;;;;;4954120;28;20438;-83
2022/09/07 05:40:18;;;;;;;4.33;2.93;;;25.80;99.90;;;;;;4950046;28;20203;-82
2022/09/07 05:42:44;;;;;;;7.40;2.60;;;;;;;;;;4952288;28;20609;-82
2022/09/07 05:45:10;;;;;;;6.90;3.40;;;27.80;99.90;;;;;;4954710;28;20266;-89
2022/09/07 05:47:36;;;;;;;6.63;2.50;;;;;;;;;;4951508;28;20473;-86
2022/09/07 05:50:04;;;;;;;5.87;3.63;;;29.80;99.90;;;;;;4946468;28;20457;-86
2022/09/07 05:52:29;;;;;;;4.90;2.67;;;;;;;;;;4933755;28;20468;-83
2022/09/07 05:54:55;;;;;;;4.07;2.83;;;;;;;;;;4932743;28;20435;-87
2022/09/07 05:57:21;;;;;;;4.20;2.67;;;30.70;99.90;;;;;;4934030;28;20781;-83
2022/09/07 05:59:47;;;;;;;6.33;3.30;;;;;;;;;;4958478;28;20515;-88
2022/09/07 06:02:14;;;;;;;4.60;2.53;;;30.50;99.90;;;;;;4953822;28;20184;-85
2022/09/07 06:04:40;;;;;;;6.87;2.80;;;30.70;99.10;;;;;;4935994;28;20440;-85
2022/09/07 06:07:05;;;;;;;3.17;2.63;;;31.60;99.60;;;;;;4957312;28;20935;-84
2022/09/07 06:09:31;;;;;;;5.17;2.70;;;32.40;95.70;;;;;;4956528;28;20306;-84
2022/09/07 06:11:57;;;;;;;4.30;2.87;;;;;;;;;;4933833;28;21418;-85
2022/09/07 06:14:23;;;;;;;5.93;2.90;;;;;;;;;;4934262;28;20274;-83
2022/09/07 06:16:49;;;;;;;5.53;3.13;;;;;;;;;;4931535;28;20448;-85
2022/09/07 06:19:14;;;;;;;4.63;2.70;;;33.00;91.70;;;;;;4933765;28;20525;-82
2022/09/07 06:21:40;;;;;;;4.70;3.17;;;;;;;;;;4929270;28;20541;-84
2022/09/07 06:24:06;;;;;;;5.03;3.10;;;;;;;;;;4929316;28;22518;-84
2022/09/07 06:26:32;;;;;;;6.60;2.60;;;30.50;93.20;;;;;;4950560;28;20471;-82
2022/09/07 06:28:58;;;;;;;5.37;3.00;;;28.80;95.70;;;;;;4960477;28;20481;-84
2022/09/07 06:31:24;;;;;;;12.27;3.07;;;27.00;99.90;;;;;;4955625;28;20196;-84
2022/09/07 06:33:50;;;;;;;6.20;2.60;;;26.90;99.90;;;;;;4939716;28;20262;-85
2022/09/07 06:36:18;;;;;;;13.03;3.30;;;26.30;99.90;;;;;;4935841;28;20788;-85
2022/09/07 06:38:45;;;;;;;5.10;3.07;;;25.60;99.90;;;;;;4936687;28;20465;-88
2022/09/07 06:41:14;;;;;;;15.17;3.30;;;25.20;99.90;;;;;;4945831;28;20447;-86
2022/09/07 06:43:40;;;;;;;7.83;3.67;;;24.80;99.90;;;;;;4928300;28;21236;-83
2022/09/07 06:46:05;;;;;;;8.40;4.10;;;24.50;99.90;;;;;;4948327;28;20462;-84
2022/09/07 06:48:32;;;;;;;4.00;2.67;;;24.40;99.90;;;;;;4955964;28;20474;-84
2022/09/07 06:51:00;;;;;;;7.40;3.33;;;25.40;99.90;;;;;;4938339;28;20199;-85
2022/09/07 06:53:28;;;;;;;5.10;2.87;;;28.10;99.90;;;;;;4934088;28;20573;-89
2022/09/07 06:55:54;;;;;;;4.60;3.00;;;;;;;;;;4952278;28;20505;-84
2022/09/07 06:58:23;;;;;;;7.20;2.60;;;;;;;;;;4938162;28;20438;-84
2022/09/07 07:00:49;;;;;;;12.10;3.10;;;33.30;96.20;;;;;;4934386;28;20663;-86
2022/09/07 07:03:15;;;;;;;8.40;3.33;;;;;;;;;;4949824;28;20531;-84
2022/09/07 07:05:40;;;;;;;6.17;3.03;;;;;;;;;;4949863;28;20223;-85
2022/09/07 07:08:06;;;;;;;5.47;3.30;;;;;;;;;;4942660;28;20458;-84
2022/09/07 07:10:36;;;;;;;8.13;4.07;;;38.10;68.70;;;;;;4968156;28;20440;-87
2022/09/07 07:13:02;;;;;;;4.53;4.13;;;;;;;;;;4948710;28;20438;-86
2022/09/07 07:15:29;;;;;;;5.43;5.00;;;38.20;62.10;;;;;;4959754;28;20967;-85
2022/09/07 07:17:55;;;;;;;8.67;5.83;;;;;;;;;;4958252;28;20448;-90
2022/09/07 07:20:20;;;;;;;6.00;5.07;;;35.60;63.00;;;;;;4978562;28;20467;-86
2022/09/07 07:22:51;;;;;;;9.93;4.40;;;33.20;70.90;;;;;;4954138;28;21049;-86
2022/09/07 07:25:17;;;;;;;6.43;3.70;;;32.30;77.60;;;;;;4955362;28;20214;-88
2022/09/07 07:27:44;;;;;;;7.33;4.40;;;33.70;78.10;;;;;;4956927;28;20501;-84
2022/09/07 07:30:14;;;;;;;5.27;3.83;;;33.60;78.70;;;;;;4971325;28;20525;-85
2022/09/07 07:32:41;;;;;;;6.70;4.50;;;34.10;77.20;;;;;;4959524;28;20557;-84
2022/09/07 07:35:07;;;;;;;7.43;4.50;;;;;;;;;;4967806;28;20439;-85
2022/09/07 07:37:35;;;;;;;6.47;5.20;;;36.80;70.50;;;;;;4960666;28;20437;-85
2022/09/07 07:40:01;;;;;;;8.57;6.30;;;;;;;;;;4958309;28;20480;-86
2022/09/07 07:42:27;;;;;;;7.63;5.60;;;;;;;;;;4956858;28;21063;-87
2022/09/07 07:44:54;;;;;;;7.90;6.33;;;;;;;;;;4974226;28;20447;-88
2022/09/07 07:47:24;;;;;;;7.50;6.80;;;39.00;62.20;;;;;;4978910;28;23738;-87
2022/09/07 07:49:49;;;;;;;9.23;8.27;;;39.00;62.50;;;;;;4987567;28;20468;-86
2022/09/07 07:52:15;;;;;;;11.80;10.77;;;37.20;59.40;;;;;;4996269;28;20444;-84
2022/09/07 07:54:42;;;;;;;8.37;7.10;;;35.40;64.50;;;;;;4964822;28;20188;-87
2022/09/07 07:57:07;;;;;;;6.90;3.90;;;31.60;71.00;;;;;;4943107;28;20871;-88
2022/09/07 07:59:34;;;;;;;17.10;5.03;;;28.70;82.10;;;;;;4985552;28;20434;-88
2022/09/07 08:02:03;;;;;;;6.70;2.67;;;28.20;91.90;;;;;;4967720;28;20184;-90
2022/09/07 08:04:30;;;;;;;6.50;2.97;;;28.10;92.20;;;;;;4975878;28;20476;-86
2022/09/07 08:06:56;;;;;;;9.27;2.87;;;27.00;94.80;;;;;;4974708;28;20469;-86
2022/09/07 08:09:21;;;;;;;6.03;2.80;;;27.20;96.90;;;;;;4959304;28;20469;-89
2022/09/07 08:11:47;;;;;;;7.63;2.97;;;30.80;97.90;;;;;;4970251;28;20435;-88
2022/09/07 08:14:15;;;;;;;8.30;2.70;;;26.90;99.10;;;;;;4974157;28;20178;-86
2022/09/07 08:16:44;;;;;;;7.97;3.07;;;27.40;99.30;;;;;;4969134;28;20718;-85
2022/09/07 08:19:10;;;;;;;8.70;3.30;;;27.60;99.50;;;;;;4960065;28;20443;-87
2022/09/07 08:21:36;;;;;;;7.27;3.27;;;27.80;99.60;;;;;;4975713;28;20436;-87
2022/09/07 08:24:02;;;;;;;3.27;2.67;;;28.20;98.40;;;;;;4978709;28;20196;-87
2022/09/07 08:26:28;;;;;;;6.70;2.57;;;;;;;;;;4975626;28;20203;-89
2022/09/07 08:28:55;;;;;;;6.80;3.00;;;;;;;;;;4957537;28;20483;-90
2022/09/07 08:31:21;;;;;;;6.63;3.60;;;32.50;91.20;;;;;;4963983;28;20953;-88
2022/09/07 08:33:46;;;;;;;9.20;3.27;;;31.20;89.10;;;;;;4973872;28;20443;-88
2022/09/07 08:36:18;;;;;;;3.03;2.70;;;30.30;92.80;;;;;;4975769;28;21007;-88
2022/09/07 08:38:44;;;;;;;4.63;2.80;;;;;;;;;;4978234;28;20551;-91
2022/09/07 08:41:28;;;;;;;9.87;2.80;;;29.50;93.40;;;;;;4968454;28;20499;-87
2022/09/07 08:44:00;;;;;;;8.13;3.50;;;30.20;95.90;;;;;;4960844;28;20477;-87
2022/09/07 08:46:39;;;;;;;6.13;2.67;;;31.00;92.50;;;;;;4977090;28;20470;-87
2022/09/07 08:49:11;;;;;;;6.33;2.63;;;31.60;91.60;;;;;;4961624;28;20476;-88
2022/09/07 08:51:54;;;;;;;6.87;2.50;;;30.70;92.40;;;;;;4974055;28;20450;-89
2022/09/07 08:54:19;;;;;;;6.03;2.90;;;30.20;94.00;;;;;;4972694;28;20431;-90
2022/09/07 08:56:51;;;;;;;4.60;2.70;;;30.70;91.60;;;;;;4963479;28;20979;-88
2022/09/07 08:59:29;;;;;;;5.90;2.60;;;30.60;91.90;;;;;;4960510;28;20244;-86
2022/09/07 09:01:55;;;;;;;6.20;2.53;;;;;;;;;;4966454;28;20536;-87
2022/09/07 09:04:23;;;;;;;7.63;3.17;;;29.90;93.20;;;;;;4972204;28;21094;-87
2022/09/07 09:06:53;;;;;;;6.47;2.50;;;29.00;94.20;;;;;;4974406;28;20466;-88
2022/09/07 09:09:45;;;;;;;7.33;2.60;;;29.40;95.30;;;;;;4974174;28;20498;-88
2022/09/07 09:12:16;;;;;;;9.00;2.63;;;29.40;93.80;;;;;;4969856;28;20436;-86
2022/09/07 09:15:09;;;;;;;20.77;5.60;;;28.30;96.30;;;;;;4976273;28;20455;-87
2022/09/07 09:17:46;;;;;;;10.77;2.20;;;28.40;96.90;;;;;;4966738;28;20449;-88
2022/09/07 09:20:35;;;;;;;6.07;2.77;;;27.70;97.90;;;;;;4964770;28;20439;-86
2022/09/07 09:23:11;;;;;;;4.33;2.67;;;26.90;99.90;;;;;;4960903;28;20445;-88
2022/09/07 09:25:45;;;;;;;6.37;2.80;;;27.30;99.90;;;;;;4971301;28;20561;-88
2022/09/07 09:28:11;;;;;;;5.87;2.70;;;28.20;99.90;;;;;;4964857;28;20496;-88
2022/09/07 09:30:37;;;;;;;8.13;2.30;;;29.00;98.20;;;;;;4989445;28;20432;-87
2022/09/07 09:33:21;;;;;;;6.50;2.77;;;29.20;97.60;;;;;;4968854;28;20439;-90
2022/09/07 09:35:49;;;;;;;9.13;2.30;;;29.70;97.40;;;;;;4977830;28;20454;-90
2022/09/07 09:38:33;;;;;;;7.73;2.17;;;29.70;95.60;;;;;;4959360;28;20534;-86
2022/09/07 09:41:09;;;;;;;6.20;3.10;;;30.80;95.40;;;;;;4966686;28;21022;-89
2022/09/07 09:43:55;;;;;;;4.57;2.70;;;30.20;94.00;;;;;;4958232;28;20959;-88
2022/09/07 09:46:30;;;;;;;5.97;3.37;;;29.60;94.30;;;;;;4961072;28;20451;-87
2022/09/07 09:49:03;;;;;;;7.13;3.00;;;30.50;94.40;;;;;;4956388;28;20462;-89
2022/09/07 09:51:33;;;;;;;4.30;3.07;;;29.40;93.90;;;;;;4977078;28;20446;-86
2022/09/07 09:54:17;;;;;;;8.63;3.70;;;28.80;95.50;;;;;;4968136;28;20966;-87
2022/09/07 09:56:45;;;;;;;9.33;2.87;;;30.10;95.20;;;;;;4964436;28;20868;-88
2022/09/07 09:59:16;;;;;;;6.63;2.80;;;30.10;95.60;;;;;;4966286;28;20952;-88
2022/09/07 10:01:44;;;;;;;5.90;2.43;;;30.30;92.80;;;;;;4980746;28;21496;-88
2022/09/07 10:04:29;;;;;;;5.87;2.70;;;28.90;94.20;;;;;;4964575;28;20499;-89
2022/09/07 10:07:14;;;;;;;6.47;2.67;;;28.50;95.10;;;;;;4965195;28;20471;-83
2022/09/07 10:09:47;;;;;;;5.57;2.53;;;27.80;97.80;;;;;;4959269;28;20478;-87
2022/09/07 10:12:25;;;;;;;3.57;2.50;;;27.80;98.20;;;;;;4960053;28;20445;-85
2022/09/07 10:14:51;;;;;;;6.03;2.10;;;;;;;;;;4974375;28;20437;-84
2022/09/07 10:17:37;;;;;;;8.37;2.60;;;27.60;98.50;;;;;;4961569;28;20426;-82
2022/09/07 10:20:15;;;;;;;10.67;2.93;;;27.50;99.00;;;;;;4974664;28;20521;-84
2022/09/07 10:22:56;;;;;;;8.20;2.70;;;26.80;98.90;;;;;;4961203;28;21226;-85
2022/09/07 10:25:35;;;;;;;11.43;3.17;;;26.20;99.90;;;;;;4976058;28;20473;-87
2022/09/07 10:28:11;;;;;;;6.43;2.33;;;26.30;99.90;;;;;;4960735;28;20556;-86
2022/09/07 10:31:01;;;;;;;4.17;2.60;;;26.90;99.90;;;;;;4975354;28;20445;-87
2022/09/07 10:33:43;;;;;;;5.13;2.80;;;26.90;99.90;;;;;;4978620;28;20442;-81
2022/09/07 10:36:32;;;;;;;7.60;3.07;;;27.10;99.90;;;;;;5000392;28;20536;-82
2022/09/07 10:39:03;;;;;;;3.97;2.50;;;27.00;99.90;;;;;;5000668;28;20436;-82
2022/09/07 10:41:58;;;;;;;12.03;2.83;;;27.20;99.90;;;;;;4974553;28;20459;-85
2022/09/07 10:45:04;;;;;;;6.60;2.30;;;27.30;99.90;;;;;;4967238;28;20452;-83
2022/09/07 10:47:47;;;;;;;5.27;2.67;;;27.40;99.90;;;;;;4944586;28;20549;-86
2022/09/07 10:50:39;;;;;;;7.53;2.70;;;27.20;99.90;;;;;;4954868;28;20430;-86
2022/09/07 10:53:28;;;;;;;15.63;2.80;;;27.10;99.90;;;;;;4958000;28;20460;-86
2022/09/07 10:55:57;;;;;;;6.00;2.80;;;26.90;99.90;;;;;;4971516;28;20464;-84
2022/09/07 10:58:33;;;;;;;7.27;2.57;;;27.30;99.90;;;;;;4962006;28;20477;-86
2022/09/07 11:01:11;;;;;;;4.23;2.30;;;26.90;99.90;;;;;;4956462;28;20789;-82
2022/09/07 11:03:59;;;;;;;5.37;2.20;;;27.30;99.90;;;;;;4984722;28;20473;-82
2022/09/07 11:06:43;;;;;;;3.77;2.37;;;27.60;99.90;;;;;;4970247;28;20512;-89
2022/09/07 11:09:33;;;;;;;4.90;2.70;;;27.50;99.50;;;;;;4967136;28;20584;-84
2022/09/07 11:12:24;;;;;;;1.77;1.67;;;27.60;99.90;;;;;;4969059;28;20452;-86
2022/09/07 11:15:10;;;;;;;5.47;3.00;;;27.20;99.70;;;;;;4959872;28;21538;-86
2022/09/07 11:17:46;;;;;;;12.03;2.60;;;27.60;99.90;;;;;;4968936;28;20477;-87
2022/09/07 11:20:23;;;;;;;4.93;3.03;;;28.00;99.30;;;;;;4958928;28;20537;-86
2022/09/07 11:23:01;;;;;;;4.80;3.00;;;27.90;99.00;;;;;;4970375;28;20458;-84
2022/09/07 11:25:39;;;;;;;7.17;2.83;;;27.60;99.90;;;;;;4977116;28;20989;-86
2022/09/07 11:28:28;;;;;;;4.27;2.40;;;27.60;99.90;;;;;;4969889;28;20473;-87
2022/09/07 11:31:01;;;;;;;5.17;2.20;;;27.80;98.50;;;;;;4964233;28;20471;-85
2022/09/07 11:33:38;;;;;;;5.13;1.90;;;27.90;95.10;;;;;;4956075;28;20446;-85
2022/09/07 11:36:13;;;;;;;3.80;2.17;;;28.30;93.80;;;;;;4977550;28;20454;-87
2022/09/07 11:38:51;;;;;;;4.50;2.37;;;28.30;93.90;;;;;;4976343;28;20469;-88
2022/09/07 11:41:17;;;;;;;2.40;1.97;;;;;;;;;;4967888;28;20450;-85
2022/09/07 11:43:55;;;;;;;4.70;2.40;;;28.20;91.20;;;;;;4978442;28;20686;-87
2022/09/07 11:46:35;;;;;;;2.87;2.00;;;28.20;92.00;;;;;;4964743;28;20470;-86
2022/09/07 11:49:01;;;;;;;4.03;2.27;;;;;;;;;;4961963;28;20479;-85
2022/09/07 11:51:46;;;;;;;4.30;1.93;;;28.50;94.30;;;;;;4971387;28;20906;-84
2022/09/07 11:54:12;;;;;;;6.87;2.43;;;;;;;;;;4966168;28;20439;-86
2022/09/07 11:56:40;;;;;;;4.33;1.90;;;28.70;94.30;;;;;;4974953;28;20464;-87
2022/09/07 11:59:24;;;;;;;4.17;2.13;;;28.70;91.00;;;;;;4967218;28;20218;-87
2022/09/07 12:02:34;;;;;;;3.83;2.57;;;28.20;86.50;;;;;;4959712;28;20453;-87
2022/09/07 12:05:11;;;;;;;7.73;1.83;;;27.60;85.70;;;;;;4959735;28;20496;-88
2022/09/07 12:08:03;;;;;;;2.57;1.50;;;27.90;87.50;;;;;;4960544;28;20493;-85
2022/09/07 12:11:03;;;;;;;3.73;2.10;;;27.60;86.40;;;;;;4934532;28;20447;-85
2022/09/07 12:13:58;;;;;;;3.57;2.00;;;27.50;81.30;;;;;;4971573;28;20452;-84
2022/09/07 12:16:35;;;;;;;2.73;2.10;;;27.50;83.00;;;;;;4978319;28;21372;-87
2022/09/07 12:19:23;;;;;;;3.67;2.07;;;27.70;86.20;;;;;;4974702;28;20561;-88
2022/09/07 12:21:51;;;;;;;2.63;2.10;;;27.90;84.70;;;;;;4971581;28;20444;-86
2022/09/07 12:24:44;;;;;;;5.07;1.87;;;27.60;82.90;;;;;;4966439;28;20449;-83
2022/09/07 12:27:19;;;;;;;9.83;3.83;;;27.50;85.90;;;;;;4972003;28;20533;-84
2022/09/07 12:29:46;;;;;;;3.93;2.10;;;27.70;85.10;;;;;;4977817;28;20977;-86
2022/09/07 12:32:12;;;;;;;3.60;2.80;;;27.60;86.60;;;;;;4958478;28;20938;-87
2022/09/07 12:34:54;;;;;;;5.13;2.30;;;27.90;88.50;;;;;;4981006;28;20847;-87
2022/09/07 12:37:25;;;;;;;9.83;2.30;;;27.90;89.10;;;;;;4978219;28;20445;-85
2022/09/07 12:40:29;;;;;;;6.67;2.27;;;28.00;90.10;;;;;;4979653;28;20946;-86
2022/09/07 12:43:13;;;;;;;4.47;1.90;;;28.30;88.90;;;;;;4985251;28;20435;-86
2022/09/07 12:45:38;;;;;;;7.67;2.07;;;28.20;88.90;;;;;;4973247;28;20457;-87
2022/09/07 12:48:13;;;;;;;4.50;2.13;;;28.20;90.00;;;;;;4974389;28;20486;-87
2022/09/07 12:50:57;;;;;;;4.73;2.10;;;28.10;87.20;;;;;;4976713;28;20768;-84
2022/09/07 12:53:32;;;;;;;3.00;1.60;;;28.00;87.20;;;;;;4974453;28;20474;-87
2022/09/07 12:56:27;;;;;;;2.83;2.23;;;28.00;87.50;;;;;;4967776;28;21096;-85
2022/09/07 12:59:07;;;;;;;11.33;2.80;;;28.10;86.50;;;;;;4969697;28;20451;-85
2022/09/07 13:01:35;;;;;;;3.13;2.00;;;28.20;85.90;;;;;;4972818;28;20438;-87
2022/09/07 13:04:19;;;;;;;4.73;2.30;;;28.00;84.60;;;;;;4965278;28;20465;-83
2022/09/07 13:07:15;;;;;;;7.43;2.13;;;27.90;84.80;;;;;;4969774;28;20484;-85
2022/09/07 13:09:41;;;;;;;6.00;2.53;;;27.90;86.00;;;;;;4973711;28;20441;-86
2022/09/07 13:12:33;;;;;;;8.20;3.07;;;27.50;86.70;;;;;;4965835;28;20436;-84
2022/09/07 13:14:59;;;;;;;3.63;2.27;;;27.60;84.00;;;;;;4974077;28;20438;-86
2022/09/07 13:17:30;;;;;;;3.60;2.73;;;27.60;85.00;;;;;;4975287;28;20478;-85
2022/09/07 13:19:56;;;;;;;3.80;1.97;;;27.50;85.70;;;;;;4960904;28;20450;-86
2022/09/07 13:22:34;;;;;;;5.00;1.90;;;27.40;83.30;;;;;;4993074;28;20453;-81
2022/09/07 13:25:22;;;;;;;5.60;2.60;;;27.20;83.00;;;;;;5004266;28;20182;-82